Time,TemperatureF,DewpointF,PressureIn,WindDirection,WindDirectionDegrees,WindSpeedMPH,WindSpeedGustMPH,Humidity,HourlyPrecipIn,Conditions,Clouds,dailyrainin,SolarRadiationWatts/m^2,SoftwareType,DateUTC
2013-01-22 00:40:00,33.4,12.2,30.03,West,281,6.0,15.0,41,0.00,,,0.00,0,Wunderground v.1.15,2013-01-22 05:40:00,
2013-01-22 03:15:00,29.4,7.5,30.09,WNW,297,11.0,14.0,39,0.00,,,0.00,0,Wunderground v.1.15,2013-01-22 08:15:00,
2013-01-22 03:20:00,29.3,6.8,30.09,WNW,301,12.0,15.0,38,0.00,,,0.00,0,Wunderground v.1.15,2013-01-22 08:20:00,
2013-01-22 03:30:00,29.0,5.9,30.10,WNW,287,13.0,13.0,37,0.00,,,0.00,0,Wunderground v.1.15,2013-01-22 08:30:00,
2013-01-22 03:35:00,28.9,7.0,30.10,NW,309,12.0,12.0,39,0.00,,,0.00,0,Wunderground v.1.15,2013-01-22 08:35:00,
2013-01-22 06:10:00,25.2,2.5,30.16,WNW,298,5.0,25.0,37,0.00,,,0.00,0,Wunderground v.1.15,2013-01-22 11:10:00,
2013-01-22 06:15:00,25.0,2.9,30.17,West,279,4.0,25.0,38,0.00,,,0.00,0,Wunderground v.1.15,2013-01-22 11:15:00,
2013-01-22 06:20:00,24.9,3.4,30.17,WNW,293,3.0,4.0,39,0.00,,,0.00,0,Wunderground v.1.15,2013-01-22 11:20:00,
2013-01-22 06:30:00,24.7,4.8,30.18,WNW,293,2.0,3.0,42,0.00,,,0.00,0,Wunderground v.1.15,2013-01-22 11:30:00,
2013-01-22 06:40:00,24.6,3.1,30.18,NNW,331,6.0,7.0,39,0.00,,,0.00,0,Wunderground v.1.15,2013-01-22 11:40:00,
2013-01-22 09:15:00,24.6,2.0,30.26,WNW,291,4.0,4.0,37,0.00,,,0.00,70,Wunderground v.1.15,2013-01-22 14:15:00,
2013-01-22 09:25:00,24.7,0.9,30.27,WNW,298,3.0,5.0,35,0.00,,,0.00,178,Wunderground v.1.15,2013-01-22 14:25:00,
2013-01-22 09:35:00,24.8,1.0,30.27,NW,314,3.0,3.0,35,0.00,,,0.00,325,Wunderground v.1.15,2013-01-22 14:35:00,
2013-01-22 09:40:00,25.0,0.5,30.26,NW,308,3.0,3.0,34,0.00,,,0.00,341,Wunderground v.1.15,2013-01-22 14:40:00,
2013-01-22 09:50:00,25.0,0.5,30.27,NW,326,4.0,9.0,34,0.00,,,0.00,366,Wunderground v.1.15,2013-01-22 14:50:00,
2013-01-22 12:20:00,29.8,2.1,30.25,WSW,241,8.0,10.0,30,0.00,,,0.00,582,Wunderground v.1.15,2013-01-22 17:20:00,
2013-01-22 12:25:00,30.8,1.5,30.25,West,259,8.0,10.0,28,0.00,,,0.00,584,Wunderground v.1.15,2013-01-22 17:25:00,
2013-01-22 12:35:00,30.5,0.4,30.25,West,266,8.0,8.0,27,0.00,,,0.00,585,Wunderground v.1.15,2013-01-22 17:35:00,
2013-01-22 12:45:00,29.4,-0.5,30.25,WNW,283,10.0,10.0,27,0.00,,,0.00,585,Wunderground v.1.15,2013-01-22 17:45:00,
2013-01-22 12:50:00,29.7,2.0,30.25,WSW,257,9.0,9.0,30,0.00,,,0.00,582,Wunderground v.1.15,2013-01-22 17:50:00,
2013-01-22 13:00:00,30.9,0.8,30.24,WSW,251,8.0,8.0,27,0.00,,,0.00,580,Wunderground v.1.15,2013-01-22 18:00:00,
2013-01-22 13:05:00,31.3,0.3,30.24,WNW,283,8.0,10.0,26,0.00,,,0.00,577,Wunderground v.1.15,2013-01-22 18:05:00,
2013-01-22 13:15:00,31.3,0.3,30.24,West,260,9.0,10.0,26,0.00,,,0.00,568,Wunderground v.1.15,2013-01-22 18:15:00,
2013-01-22 13:20:00,30.9,-0.9,30.24,WSW,258,10.0,10.0,25,0.00,,,0.00,566,Wunderground v.1.15,2013-01-22 18:20:00,
2013-01-22 13:25:00,31.5,-0.3,30.24,West,276,9.0,10.0,25,0.00,,,0.00,561,Wunderground v.1.15,2013-01-22 18:25:00,
2013-01-22 13:35:00,30.9,0.0,30.23,West,260,9.0,9.0,26,0.00,,,0.00,552,Wunderground v.1.15,2013-01-22 18:35:00,
2013-01-22 13:45:00,31.6,2.2,30.23,West,263,7.0,8.0,28,0.00,,,0.00,541,Wunderground v.1.15,2013-01-22 18:45:00,
2013-01-22 13:50:00,31.9,0.8,30.23,WSW,255,7.0,7.0,26,0.00,,,0.00,534,Wunderground v.1.15,2013-01-22 18:50:00,
2013-01-22 14:00:00,31.9,0.8,30.23,SW,236,8.0,8.0,26,0.00,,,0.00,105,Wunderground v.1.15,2013-01-22 19:00:00,
2013-01-22 14:05:00,31.2,1.8,30.23,WNW,297,9.0,10.0,28,0.00,,,0.00,255,Wunderground v.1.15,2013-01-22 19:05:00,
2013-01-22 18:30:00,28.5,0.9,30.28,NW,312,5.0,7.0,30,0.00,,,0.00,0,Wunderground v.1.15,2013-01-22 23:30:00,
2013-01-22 18:40:00,28.4,1.6,30.28,NW,308,6.0,7.0,31,0.00,,,0.00,0,Wunderground v.1.15,2013-01-22 23:40:00,
2013-01-22 21:15:00,25.2,4.2,30.30,NW,306,2.0,2.0,40,0.00,,,0.00,0,Wunderground v.1.15,2013-01-23 02:15:00,
2013-01-22 21:25:00,25.2,3.1,30.30,NW,306,2.0,2.0,38,0.00,,,0.00,0,Wunderground v.1.15,2013-01-23 02:25:00,
2013-01-22 21:30:00,25.3,2.0,30.31,NW,307,2.0,3.0,36,0.00,,,0.00,0,Wunderground v.1.15,2013-01-23 02:30:00,
2013-01-22 21:40:00,25.2,4.2,30.32,WNW,298,2.0,3.0,40,0.00,,,0.00,0,Wunderground v.1.15,2013-01-23 02:40:00,
2013-01-22 21:45:00,25.2,2.5,30.32,WNW,293,2.0,3.0,37,0.00,,,0.00,0,Wunderground v.1.15,2013-01-23 02:45:00,
2013-01-22 21:50:00,25.2,1.3,30.32,NW,318,3.0,3.0,35,0.00,,,0.00,0,Wunderground v.1.15,2013-01-23 02:50:00,
2013-01-22 22:00:00,25.1,2.4,30.32,NW,318,2.0,2.0,37,0.00,,,0.00,0,Wunderground v.1.15,2013-01-23 03:00:00,
2013-01-22 22:05:00,25.0,7.6,30.32,NW,318,1.0,2.0,47,0.00,,,0.00,0,Wunderground v.1.15,2013-01-23 03:05:00,
2013-01-22 22:15:00,24.5,7.6,30.32,NW,318,0.0,0.0,48,0.00,,,0.00,0,Wunderground v.1.15,2013-01-23 03:15:00,
2013-01-22 22:20:00,24.0,5.2,30.33,NW,318,0.0,0.0,44,0.00,,,0.00,0,Wunderground v.1.15,2013-01-23 03:20:00,